Time;durP1;ratioP1;P1;durP2;ratioP2;P2;SDS_P1;SDS_P2;PMS_P1;PMS_P2;Temp;Humidity;BMP_temperature;BMP_pressure;BME280_temperature;BME280_humidity;BME280_pressure;Samples;Min_cycle;Max_cycle;Signal;HPM_P1;HPM_P2
2024/04/18 00:02:49;;;;;;;0.10;0.10;;;;;;;-145.06;100.00;53070.25;11307816;26;20448;-71
2024/04/18 00:07:49;;;;;;;0.00;0.00;;;;;;;-145.06;100.00;53031.78;11299731;26;19999;-67
2024/04/18 00:12:49;;;;;;;0.00;0.00;;;;;;;-145.06;100.00;53045.97;11300082;26;20013;-68
2024/04/18 00:17:49;;;;;;;0.00;0.00;;;;;;;-145.06;100.00;53041.91;11294140;26;20440;-68
2024/04/18 00:22:52;;;;;;;0.10;0.10;;;;;;;-145.06;100.00;53037.88;11294643;26;20380;-68
2024/04/18 00:27:53;;;;;;;0.00;0.00;;;;;;;-145.06;100.00;52997.38;11300003;26;20334;-68
2024/04/18 00:32:53;;;;;;;0.00;0.00;;;;;;;-145.06;100.00;53013.56;11295724;26;20027;-67
2024/04/18 00:37:53;;;;;;;0.00;0.00;;;;;;;-145.06;100.00;52964.97;11295130;26;20331;-68
2024/04/18 00:42:54;;;;;;;0.00;0.00;;;;;;;-145.06;100.00;52975.09;11321004;26;19998;-67
2024/04/18 00:47:55;;;;;;;0.10;0.10;;;;;;;-145.06;100.00;53001.41;11301867;26;20341;-67
2024/04/18 00:52:56;;;;;;;0.00;0.00;;;;;;;-145.06;100.00;53007.50;11302823;26;19999;-68
2024/04/18 00:57:57;;;;;;;0.00;0.00;;;;;;;-145.06;100.00;52985.22;11296653;26;20460;-68
2024/04/18 01:02:57;;;;;;;0.00;0.00;;;;;;;-145.06;100.00;52967.00;11312101;26;19998;-68
2024/04/18 01:07:58;;;;;;;0.00;0.00;;;;;;;-145.06;100.00;52940.69;11305378;26;20093;-69
2024/04/18 01:13:00;;;;;;;0.00;0.00;;;;;;;-145.06;100.00;52912.34;11324013;26;20009;-69
2024/04/18 01:18:00;;;;;;;0.00;0.00;;;;;;;-145.06;100.00;52908.28;11320334;26;19999;-68
2024/04/18 01:23:01;;;;;;;0.00;0.00;;;;;;;-145.06;100.00;52954.84;11309534;26;20005;-68
2024/04/18 01:28:01;;;;;;;0.00;0.00;;;;;;;-145.06;100.00;52914.34;11319884;26;20444;-69
2024/04/18 01:33:01;;;;;;;0.10;0.10;;;;;;;-145.06;100.00;52944.72;11320168;26;19998;-67
2024/04/18 01:38:02;;;;;;;0.00;0.00;;;;;;;-145.06;100.00;52960.91;11315471;26;20405;-68
2024/04/18 01:43:02;;;;;;;0.00;0.00;;;;;;;-145.06;100.00;52952.81;11301350;26;20005;-73
2024/04/18 01:48:03;;;;;;;0.00;0.00;;;;;;;-145.06;100.00;52981.16;11320616;26;20085;-69
2024/04/18 01:53:03;;;;;;;0.00;0.00;;;;;;;-145.06;100.00;53001.41;11338186;26;20339;-70
2024/04/18 01:58:04;;;;;;;0.00;0.00;;;;;;;-145.06;100.00;53039.88;11314525;26;20006;-70
2024/04/18 02:03:04;;;;;;;0.07;0.07;;;;;;;-145.06;100.00;53062.16;11322472;26;19999;-70
2024/04/18 02:08:05;;;;;;;0.05;0.05;;;;;;;-145.06;100.00;53039.88;11314562;26;20228;-70
2024/04/18 02:13:05;;;;;;;0.10;0.10;;;;;;;-145.06;100.00;53045.97;11308523;26;20007;-69
2024/04/18 02:18:05;;;;;;;0.00;0.00;;;;;;;-145.06;100.00;53029.75;11310081;26;20010;-68
2024/04/18 02:23:06;;;;;;;0.00;0.00;;;;;;;-145.06;100.00;53039.88;11328932;26;20002;-69
2024/04/18 02:28:06;;;;;;;0.00;0.00;;;;;;;-145.06;100.00;53041.91;11304143;26;20011;-69
2024/04/18 02:33:06;;;;;;;0.00;0.00;;;;;;;-145.06;100.00;53068.22;11311830;26;19998;-68
2024/04/18 02:38:07;;;;;;;0.00;0.00;;;;;;;-145.06;100.00;53013.56;11305612;26;20455;-69
2024/04/18 02:43:07;;;;;;;0.10;0.10;;;;;;;-145.06;100.00;53043.94;11307087;26;19995;-68
2024/04/18 02:48:07;;;;;;;0.10;0.10;;;;;;;-145.06;100.00;53013.56;11325798;26;19991;-68
2024/04/18 02:53:07;;;;;;;0.10;0.10;;;;;;;-145.06;100.00;53001.41;11323320;26;19990;-68
2024/04/18 02:58:08;;;;;;;0.10;0.10;;;;;;;-145.06;100.00;52987.25;11319248;26;19995;-68
2024/04/18 03:03:08;;;;;;;0.10;0.10;;;;;;;-145.06;100.00;52995.34;11306858;26;20010;-67
2024/04/18 03:08:09;;;;;;;0.00;0.00;;;;;;;-145.06;100.00;52991.28;11301665;26;20327;-68
2024/04/18 03:13:09;;;;;;;0.10;0.10;;;;;;;-145.06;100.00;53021.66;11328661;26;20413;-68
2024/04/18 03:18:09;;;;;;;0.10;0.10;;;;;;;-145.06;100.00;53031.78;11312235;26;19999;-67
2024/04/18 03:23:10;;;;;;;0.00;0.00;;;;;;;-145.06;100.00;53035.84;11315760;26;20435;-68
2024/04/18 03:28:10;;;;;;;0.10;0.10;;;;;;;-145.06;100.00;52995.34;11307875;26;20494;-67
2024/04/18 03:33:10;;;;;;;0.00;0.00;;;;;;;-145.06;100.00;53031.78;11300767;26;20002;-70
2024/04/18 03:38:10;;;;;;;0.00;0.00;;;;;;;-145.06;100.00;53066.22;11313032;26;20002;-69
2024/04/18 03:43:11;;;;;;;0.00;0.00;;;;;;;-145.06;100.00;53043.94;11302384;26;19997;-68
2024/04/18 03:48:11;;;;;;;0.10;0.10;;;;;;;-145.06;100.00;53068.22;11305101;26;19999;-68
2024/04/18 03:53:11;;;;;;;0.10;0.10;;;;;;;-145.06;100.00;53078.34;11302987;26;20228;-69
2024/04/18 03:58:12;;;;;;;0.10;0.10;;;;;;;-145.06;100.00;53056.09;11301517;26;19998;-71
2024/04/18 04:03:12;;;;;;;0.00;0.00;;;;;;;-145.06;100.00;53070.25;11311920;26;20013;-68
2024/04/18 04:08:12;;;;;;;0.10;0.10;;;;;;;-145.06;100.00;53039.88;11309784;26;20006;-67
2024/04/18 04:13:13;;;;;;;0.00;0.00;;;;;;;-145.06;100.00;53054.06;11310580;26;19994;-67
2024/04/18 04:18:13;;;;;;;0.10;0.10;;;;;;;-145.06;100.00;53031.78;11300856;26;20220;-67
2024/04/18 04:23:13;;;;;;;0.10;0.10;;;;;;;-145.06;100.00;53011.53;11307113;26;20069;-67
2024/04/18 04:28:14;;;;;;;0.10;0.10;;;;;;;-145.06;100.00;52946.75;11313567;26;20370;-67
2024/04/18 04:33:14;;;;;;;0.10;0.10;;;;;;;-145.06;100.00;52930.56;11312953;26;20009;-67
2024/04/18 04:38:14;;;;;;;0.10;0.10;;;;;;;-145.06;100.00;52898.16;11299176;26;19994;-67
2024/04/18 04:43:16;;;;;;;0.10;0.10;;;;;;;-145.06;100.00;52831.34;11298010;26;20275;-68
2024/04/18 04:48:16;;;;;;;0.00;0.00;;;;;;;-145.06;100.00;52709.88;11304683;26;20009;-68
2024/04/18 04:53:16;;;;;;;0.00;0.00;;;;;;;-145.06;100.00;52553.97;11308066;26;20531;-69
2024/04/18 04:58:17;;;;;;;0.00;0.00;;;;;;;-145.06;100.00;52683.56;11299926;26;19999;-70
2024/04/18 05:03:17;;;;;;;0.00;0.00;;;;;;;-145.06;100.00;52732.13;11300296;26;20236;-69
2024/04/18 05:08:17;;;;;;;0.00;0.00;;;;;;;-145.06;100.00;52705.81;11311983;26;20009;-69
2024/04/18 05:13:18;;;;;;;0.00;0.00;;;;;;;-145.06;99.92;52738.22;11304397;26;20228;-69
2024/04/18 05:18:18;;;;;;;0.00;0.00;;;;;;;-145.06;95.52;52639.00;11315055;26;20388;-68
2024/04/18 05:23:19;;;;;;;0.00;0.00;;;;;;;-145.06;87.08;52884.00;11308965;26;20005;-68
2024/04/18 05:28:29;;;;;;;0.10;0.10;;;;;;;-145.06;90.46;52975.09;11302447;26;20227;-66
2024/04/18 05:33:31;;;;;;;0.10;0.10;;;;;;;-145.06;95.47;53021.66;11297654;26;20014;-67
2024/04/18 05:38:31;;;;;;;0.00;0.00;;;;;;;-145.06;100.00;53037.88;11309707;26;20062;-68
2024/04/18 05:43:31;;;;;;;0.00;0.00;;;;;;;-145.06;100.00;53007.50;11310660;26;19999;-70
2024/04/18 05:48:32;;;;;;;0.00;0.00;;;;;;;-145.06;100.00;52946.75;11299778;26;20330;-68
2024/04/18 05:53:32;;;;;;;0.10;0.10;;;;;;;-145.06;100.00;52912.34;11297150;26;19998;-67
2024/04/18 05:58:33;;;;;;;0.00;0.00;;;;;;;-145.06;100.00;52890.06;11304419;26;20464;-67
2024/04/18 06:03:33;;;;;;;0.08;0.08;;;;;;;-145.06;100.00;52839.44;11306597;26;20010;-67
2024/04/18 06:08:33;;;;;;;0.00;0.00;;;;;;;-145.06;100.00;52780.72;11307651;26;20017;-67
2024/04/18 06:13:36;;;;;;;0.00;0.00;;;;;;;-145.06;100.00;52720.00;11308662;26;20002;-67
2024/04/18 06:18:37;;;;;;;0.00;0.00;;;;;;;-145.06;100.00;52701.78;11303473;26;20010;-68
2024/04/18 06:23:37;;;;;;;0.00;0.00;;;;;;;-145.06;100.00;52677.47;11305618;26;20417;-69
2024/04/18 06:28:37;;;;;;;0.00;0.00;;;;;;;-145.06;100.00;52612.69;11308255;26;20427;-70
2024/04/18 06:33:37;;;;;;;0.10;0.10;;;;;;;-145.06;100.00;52610.66;11312911;26;19998;-71
2024/04/18 06:38:38;;;;;;;0.10;0.10;;;;;;;-145.06;100.00;52594.47;11305845;26;20468;-72
2024/04/18 06:43:39;;;;;;;0.10;0.10;;;;;;;-145.06;100.00;52549.94;11309356;26;20280;-69
2024/04/18 06:48:39;;;;;;;0.10;0.10;;;;;;;-145.06;100.00;52509.44;11309003;26;20385;-68
2024/04/18 06:53:39;;;;;;;0.10;0.10;;;;;;;-145.06;100.00;52213.88;11303327;26;20398;-69
2024/04/18 06:58:40;;;;;;;0.08;0.08;;;;;;;-145.06;93.87;52414.28;11317541;26;20351;-69
2024/04/18 07:03:40;;;;;;;0.10;0.10;;;;;;;-145.06;86.91;52444.66;11309176;26;20014;-69
2024/04/18 07:08:40;;;;;;;0.10;0.10;;;;;;;-145.06;78.76;52491.22;11307708;26;19998;-68
2024/04/18 07:13:40;;;;;;;0.10;0.10;;;;;;;-145.06;82.13;52588.41;11303885;26;20007;-68
2024/04/18 07:18:41;;;;;;;0.00;0.00;;;;;;;-145.06;84.28;52274.63;11299337;26;20013;-68
2024/04/18 07:23:41;;;;;;;0.10;0.10;;;;;;;-145.06;70.28;52280.69;11304868;26;20021;-69
2024/04/18 07:28:41;;;;;;;0.00;0.00;;;;;;;-145.06;62.14;52244.25;11303080;26;20014;-70
2024/04/18 07:33:42;;;;;;;0.00;0.00;;;;;;;-145.06;57.50;52254.38;11304005;26;20016;-68
2024/04/18 07:38:42;;;;;;;0.00;0.00;;;;;;;-145.06;52.51;52296.88;11305898;26;20002;-69
2024/04/18 07:43:43;;;;;;;0.00;0.00;;;;;;;-145.06;49.50;52290.81;11304546;26;20099;-68
2024/04/18 07:48:43;;;;;;;0.10;0.10;;;;;;;-145.06;50.30;52325.22;11296976;26;20010;-68
2024/04/18 07:53:43;;;;;;;0.10;0.10;;;;;;;-145.06;49.37;52325.22;11304077;26;20016;-70
2024/04/18 07:58:44;;;;;;;0.10;0.10;;;;;;;-145.06;48.75;52298.91;11299135;26;20078;-71
2024/04/18 08:03:44;;;;;;;0.05;0.05;;;;;;;-145.06;46.26;52377.84;11316923;26;19998;-71
2024/04/18 08:08:44;;;;;;;0.10;0.10;;;;;;;-145.06;46.82;52369.75;11298522;26;20016;-71
2024/04/18 08:13:44;;;;;;;0.00;0.00;;;;;;;-145.06;46.40;52369.75;11307233;26;19998;-70
2024/04/18 08:18:45;;;;;;;0.10;0.10;;;;;;;-145.06;47.23;52404.19;11296371;26;19998;-70
2024/04/18 08:23:51;;;;;;;0.10;0.10;;;;;;;-145.06;46.50;52357.63;11298061;26;19998;-68
2024/04/18 08:28:51;;;;;;;0.10;0.10;;;;;;;-145.06;45.26;52373.81;11317392;26;19998;-69
2024/04/18 08:33:53;;;;;;;0.10;0.10;;;;;;;-145.06;43.54;52373.81;11300542;26;20011;-69
2024/04/18 08:38:53;;;;;;;0.00;0.00;;;;;;;-145.06;42.08;52477.06;11303374;26;19999;-68
2024/04/18 08:43:55;;;;;;;0.00;0.00;;;;;;;-145.06;44.16;52637.00;11296040;26;20412;-68
2024/04/18 08:48:58;;;;;;;0.10;0.10;;;;;;;-145.06;46.25;52728.09;11307353;26;20030;-68
2024/04/18 08:53:58;;;;;;;0.10;0.10;;;;;;;-145.06;48.77;52655.22;11302092;26;20006;-68
2024/04/18 08:58:59;;;;;;;0.10;0.10;;;;;;;-145.06;47.45;52608.66;11305861;26;19999;-68
2024/04/18 09:04:00;;;;;;;0.10;0.10;;;;;;;-145.06;45.27;52584.34;11293445;26;19999;-68
2024/04/18 09:09:00;;;;;;;0.00;0.00;;;;;;;-145.06;42.97;52653.19;11302050;26;20011;-68
2024/04/18 09:14:01;;;;;;;0.10;0.10;;;;;;;-145.06;46.16;52750.38;11296239;26;20020;-68
2024/04/18 09:19:01;;;;;;;0.10;0.10;;;;;;;-145.06;46.89;52606.63;11298987;26;20013;-70
2024/04/18 09:24:05;;;;;;;0.00;0.00;;;;;;;-145.06;46.11;52756.44;11295423;26;20035;-68
2024/04/18 09:29:05;;;;;;;0.10;0.10;;;;;;;-145.06;49.25;52750.38;11299012;26;20007;-68
2024/04/18 09:34:06;;;;;;;0.00;0.00;;;;;;;-145.06;49.11;52790.84;11303414;26;20505;-69
2024/04/18 09:39:22;;;;;;;0.10;0.10;;;;;;;-145.06;51.09;52837.41;11293279;26;20029;-69
2024/04/18 09:44:25;;;;;;;0.00;0.00;;;;;;;-145.06;51.60;52871.84;11303068;26;19999;-71
2024/04/18 09:49:26;;;;;;;0.10;0.10;;;;;;;-145.06;58.25;52831.34;11302114;26;21731;-70
2024/04/18 09:54:27;;;;;;;0.10;0.10;;;;;;;-145.06;67.14;52873.88;11302302;26;20328;-69
2024/04/18 09:59:28;;;;;;;0.10;0.10;;;;;;;-145.06;70.76;52910.31;11305284;26;19998;-66
2024/04/18 10:04:29;;;;;;;0.00;0.00;;;;;;;-145.06;75.15;52964.97;11307457;26;20002;-66
2024/04/18 10:09:31;;;;;;;0.10;0.10;;;;;;;-145.06;86.48;52906.25;11302692;26;20321;-66
2024/04/18 10:14:32;;;;;;;0.10;0.10;;;;;;;-145.06;94.59;52884.00;11306552;26;20009;-66
2024/04/18 10:19:32;;;;;;;0.10;0.10;;;;;;;-145.06;99.75;52730.13;11309320;26;20008;-66
2024/04/18 10:24:34;;;;;;;0.10;0.10;;;;;;;-145.06;96.02;52681.53;11310003;26;20002;-66
2024/04/18 10:29:34;;;;;;;0.10;0.10;;;;;;;-145.06;92.31;52659.25;11311604;26;20504;-68
2024/04/18 10:34:35;;;;;;;0.10;0.10;;;;;;;-145.06;82.69;52655.22;11303464;26;20002;-67
2024/04/18 10:39:37;;;;;;;0.10;0.10;;;;;;;-145.06;77.93;52653.19;11305214;26;19999;-67
2024/04/18 10:44:37;;;;;;;0.10;0.10;;;;;;;-145.06;70.97;52661.28;11306158;26;20271;-67
2024/04/18 10:49:38;;;;;;;0.00;0.00;;;;;;;-145.06;68.54;52620.78;11301093;26;20448;-67
2024/04/18 10:54:39;;;;;;;0.10;0.10;;;;;;;-145.06;67.33;52643.06;11303401;26;19999;-67
2024/04/18 10:59:43;;;;;;;0.10;0.10;;;;;;;-145.06;58.57;52669.38;11297044;26;20006;-68
2024/04/18 11:04:43;;;;;;;0.10;0.10;;;;;;;-145.06;59.10;52701.78;11300908;26;20014;-66
2024/04/18 11:09:44;;;;;;;0.10;0.10;;;;;;;-145.06;59.98;52752.38;11305231;26;20335;-67
2024/04/18 11:14:47;;;;;;;0.10;0.10;;;;;;;-145.06;59.26;52803.00;11305895;26;20002;-66
2024/04/18 11:19:48;;;;;;;0.00;0.00;;;;;;;-145.06;67.97;52809.06;11302378;26;20034;-67
2024/04/18 11:24:50;;;;;;;0.10;0.10;;;;;;;-145.06;75.75;52843.50;11302436;26;20063;-67
2024/04/18 11:29:51;;;;;;;0.10;0.10;;;;;;;-145.06;80.30;52853.63;11303202;26;20047;-68
2024/04/18 11:34:52;;;;;;;0.10;0.10;;;;;;;-145.06;81.44;52817.19;11302268;26;20030;-66
2024/04/18 11:39:55;;;;;;;0.10;0.10;;;;;;;-145.06;79.77;52764.53;11302610;26;20014;-67
2024/04/18 11:44:56;;;;;;;0.10;0.10;;;;;;;-145.06;72.96;52697.72;11287255;26;20002;-66
2024/04/18 11:49:56;;;;;;;0.10;0.10;;;;;;;-145.06;71.80;52677.47;11306668;26;20033;-67
2024/04/18 11:54:56;;;;;;;0.10;0.10;;;;;;;-145.06;66.73;52673.44;11306791;26;20017;-67
2024/04/18 11:59:56;;;;;;;0.00;0.00;;;;;;;-145.06;70.03;52598.53;11306494;26;20006;-67
2024/04/18 12:04:57;;;;;;;0.10;0.10;;;;;;;-145.06;61.77;52705.81;11299781;26;20016;-67
2024/04/18 12:09:57;;;;;;;0.10;0.10;;;;;;;-145.06;56.92;52766.56;11295780;26;20010;-68
2024/04/18 12:14:57;;;;;;;0.10;0.10;;;;;;;-145.06;56.86;52827.28;11311139;26;19999;-68
2024/04/18 12:19:58;;;;;;;0.00;0.00;;;;;;;-145.06;59.03;52811.09;11316430;26;20013;-68
2024/04/18 12:24:59;;;;;;;0.10;0.10;;;;;;;-145.06;61.90;52829.31;11305380;26;20064;-68
2024/04/18 12:29:59;;;;;;;0.10;0.10;;;;;;;-145.06;64.73;52833.38;11305212;26;20068;-70
2024/04/18 12:34:59;;;;;;;0.10;0.10;;;;;;;-145.06;64.67;52800.97;11312093;26;20013;-70
2024/04/18 12:40:02;;;;;;;0.10;0.10;;;;;;;-145.06;60.67;52833.38;11309399;26;20531;-70
2024/04/18 12:45:03;;;;;;;0.10;0.10;;;;;;;-145.06;61.23;52859.69;11301746;26;20371;-69
2024/04/18 12:50:04;;;;;;;0.13;0.13;;;;;;;-145.06;60.98;52863.75;11330472;26;20013;-69
2024/04/18 12:55:04;;;;;;;0.10;0.10;;;;;;;-145.06;61.63;52833.38;11324304;26;20340;-71
2024/04/18 13:00:05;;;;;;;0.10;0.10;;;;;;;-145.06;60.79;52841.47;11309594;26;20002;-69
2024/04/18 13:05:05;;;;;;;0.15;0.15;;;;;;;-145.06;60.11;52857.66;11301761;26;19999;-71
2024/04/18 13:10:06;;;;;;;0.10;0.10;;;;;;;-145.06;61.47;52877.91;11333756;26;20014;-69
2024/04/18 13:15:07;;;;;;;0.10;0.10;;;;;;;-145.06;62.86;52871.84;11308191;26;20417;-69
2024/04/18 13:20:07;;;;;;;0.00;0.00;;;;;;;-145.06;61.86;52900.19;11325113;26;20009;-68
2024/04/18 13:25:07;;;;;;;0.10;0.10;;;;;;;-145.06;61.99;52928.53;11316205;26;20011;-68
2024/04/18 13:30:08;;;;;;;0.10;0.10;;;;;;;-145.06;61.27;52926.50;11318616;26;20010;-68
2024/04/18 13:35:08;;;;;;;0.10;0.10;;;;;;;-145.06;63.30;52900.19;11323431;26;20078;-69
2024/04/18 13:40:09;;;;;;;0.00;0.00;;;;;;;-145.06;59.30;52918.41;11326714;26;20510;-69
2024/04/18 13:45:09;;;;;;;0.10;0.10;;;;;;;-145.06;60.10;52884.00;11309711;26;20046;-68
2024/04/18 13:50:10;;;;;;;0.10;0.10;;;;;;;-145.06;57.03;52914.34;11325208;26;20013;-69
2024/04/18 13:55:10;;;;;;;0.10;0.10;;;;;;;-145.06;57.78;52924.47;11326153;26;20075;-69
2024/04/18 14:00:11;;;;;;;0.10;0.10;;;;;;;-145.06;57.48;52888.03;11319536;26;20075;-69
2024/04/18 14:05:16;;;;;;;0.10;0.10;;;;;;;-145.06;56.58;52857.66;11318857;26;20025;-72
2024/04/18 14:10:16;;;;;;;0.08;0.08;;;;;;;-145.06;54.41;52873.88;11320271;26;20041;-69
2024/04/18 14:15:27;;;;;;;0.20;0.20;;;;;;;-145.06;51.58;52964.97;11325777;26;20451;-70
2024/04/18 14:20:27;;;;;;;0.10;0.10;;;;;;;-145.06;51.79;52985.22;11322831;26;20429;-69
2024/04/18 14:25:28;;;;;;;0.10;0.10;;;;;;;-145.06;52.15;52964.97;11316622;26;20003;-69
2024/04/18 14:30:28;;;;;;;0.10;0.10;;;;;;;-145.06;48.88;52997.38;11316072;26;20371;-69
2024/04/18 14:35:29;;;;;;;0.10;0.10;;;;;;;-145.06;49.45;52995.34;11312723;26;20268;-68
2024/04/18 14:40:29;;;;;;;0.00;0.00;;;;;;;-145.06;51.84;52985.22;11314183;26;20303;-72
2024/04/18 14:45:30;;;;;;;0.10;0.10;;;;;;;-145.06;49.24;53001.41;11310452;26;20356;-71
2024/04/18 14:50:30;;;;;;;0.10;0.10;;;;;;;-145.06;48.46;53029.75;11310299;26;20009;-71
2024/04/18 14:55:30;;;;;;;0.10;0.10;;;;;;;-145.06;50.15;53037.88;11309953;26;20001;-71
2024/04/18 15:00:31;;;;;;;0.10;0.10;;;;;;;-145.06;57.92;52979.16;11312377;26;20011;-70
2024/04/18 15:05:32;;;;;;;0.10;0.10;;;;;;;-145.06;57.99;53009.50;11316786;26;20791;-71
2024/04/18 15:10:35;;;;;;;0.10;0.10;;;;;;;-145.06;58.16;53035.84;11322847;26;20002;-69
2024/04/18 15:15:35;;;;;;;0.10;0.10;;;;;;;-145.06;62.26;52997.38;11310715;26;20007;-71
2024/04/18 15:20:36;;;;;;;0.00;0.00;;;;;;;-145.06;64.39;53003.44;11311110;26;20003;-69
2024/04/18 15:25:37;;;;;;;0.10;0.10;;;;;;;-145.06;62.69;53009.50;11323908;26;20524;-70
2024/04/18 15:30:37;;;;;;;0.10;0.10;;;;;;;-145.06;63.66;53023.69;11310703;26;20333;-70
2024/04/18 15:35:37;;;;;;;0.10;0.10;;;;;;;-145.06;66.63;53029.75;11318046;26;20078;-69
2024/04/18 15:40:37;;;;;;;0.10;0.10;;;;;;;-145.06;70.14;52987.25;11314013;26;19998;-69
2024/04/18 15:45:41;;;;;;;0.10;0.10;;;;;;;-145.06;64.39;53029.75;11312159;26;20007;-69
2024/04/18 15:50:41;;;;;;;0.10;0.10;;;;;;;-145.06;63.45;53050.00;11309332;26;19997;-70
2024/04/18 15:55:41;;;;;;;0.10;0.10;;;;;;;-145.06;64.90;53029.75;11310267;26;20002;-71
2024/04/18 16:00:42;;;;;;;0.10;0.10;;;;;;;-145.06;69.18;53005.47;11308800;26;20009;-70
2024/04/18 16:05:42;;;;;;;0.00;0.00;;;;;;;-145.06;71.73;53017.63;11305569;26;19999;-70
2024/04/18 16:10:45;;;;;;;0.10;0.10;;;;;;;-145.06;71.61;53039.88;11308673;26;20014;-69
2024/04/18 16:15:45;;;;;;;0.10;0.10;;;;;;;-145.06;72.44;53047.97;11308637;26;19998;-70
2024/04/18 16:20:55;;;;;;;0.10;0.10;;;;;;;-145.06;76.69;53003.44;11313752;26;20002;-70
2024/04/18 16:25:55;;;;;;;0.10;0.10;;;;;;;-145.06;73.38;53062.16;11307793;26;20451;-69
2024/04/18 16:30:59;;;;;;;0.10;0.10;;;;;;;-145.06;72.54;53098.59;11311631;26;20074;-70
2024/04/18 16:35:59;;;;;;;0.10;0.10;;;;;;;-145.06;74.81;53050.00;11313474;26;20015;-69
2024/04/18 16:40:59;;;;;;;0.10;0.10;;;;;;;-145.06;79.04;53074.31;11312692;26;20387;-71
2024/04/18 16:46:00;;;;;;;0.08;0.08;;;;;;;-145.06;84.62;53029.75;11312177;26;20071;-69
2024/04/18 16:51:00;;;;;;;0.10;0.10;;;;;;;-145.06;89.41;53037.88;11305372;26;20003;-70
2024/04/18 16:56:02;;;;;;;0.10;0.10;;;;;;;-145.06;87.38;53045.97;11308084;26;20075;-71
2024/04/18 17:01:02;;;;;;;0.00;0.00;;;;;;;-145.06;86.46;53045.97;11309295;26;20288;-70
2024/04/18 17:06:04;;;;;;;0.00;0.00;;;;;;;-145.06;87.15;53056.09;11304826;26;20009;-69
2024/04/18 17:11:05;;;;;;;0.10;0.10;;;;;;;-145.06;89.48;53039.88;11306568;26;20277;-75
2024/04/18 17:16:06;;;;;;;0.10;0.10;;;;;;;-145.06;91.45;53041.91;11304723;26;20003;-72
2024/04/18 17:21:06;;;;;;;0.10;0.10;;;;;;;-145.06;89.03;53062.16;11306285;26;20010;-70
2024/04/18 17:26:06;;;;;;;0.00;0.00;;;;;;;-145.06;90.86;53047.97;11305970;26;20009;-67
2024/04/18 17:31:07;;;;;;;0.10;0.10;;;;;;;-145.06;88.98;53092.53;11307321;26;20011;-67
2024/04/18 17:36:07;;;;;;;0.10;0.10;;;;;;;-145.06;88.84;53068.22;11300626;26;20002;-67
2024/04/18 17:41:07;;;;;;;0.00;0.00;;;;;;;-145.06;86.75;53094.56;11302666;26;20011;-67
2024/04/18 17:46:08;;;;;;;0.00;0.00;;;;;;;-145.06;84.53;53106.69;11309775;26;20071;-67
2024/04/18 17:51:09;;;;;;;0.00;0.00;;;;;;;-145.06;84.98;53122.91;11302356;26;20330;-67
2024/04/18 17:56:09;;;;;;;0.00;0.00;;;;;;;-145.06;83.67;53128.97;11302271;26;20003;-67
2024/04/18 18:01:10;;;;;;;0.00;0.00;;;;;;;-145.06;83.92;53112.78;11298789;26;20068;-66
2024/04/18 18:06:10;;;;;;;0.00;0.00;;;;;;;-145.06;83.52;53104.69;11308767;26;20014;-67
2024/04/18 18:11:11;;;;;;;0.10;0.10;;;;;;;-145.06;80.61;53137.06;11310758;26;20072;-67
2024/04/18 18:16:12;;;;;;;0.00;0.00;;;;;;;-145.06;80.74;53155.28;11311473;26;20003;-67
2024/04/18 18:21:12;;;;;;;0.00;0.00;;;;;;;-145.06;79.36;53145.16;11303409;26;20003;-67
2024/04/18 18:26:12;;;;;;;0.10;0.10;;;;;;;-145.06;80.14;53183.66;11309676;26;20011;-67
2024/04/18 18:31:13;;;;;;;0.00;0.00;;;;;;;-145.06;79.77;53167.44;11308791;26;20068;-67
2024/04/18 18:36:13;;;;;;;0.08;0.08;;;;;;;-145.06;80.18;53175.53;11308507;26;20013;-69
2024/04/18 18:41:13;;;;;;;0.03;0.03;;;;;;;-145.06;80.53;53179.59;11302254;26;20489;-69
2024/04/18 18:46:13;;;;;;;0.10;0.10;;;;;;;-145.06;80.93;53183.66;11301929;26;20409;-67
2024/04/18 18:51:14;;;;;;;0.00;0.00;;;;;;;-145.06;81.15;53195.78;11307998;26;20021;-67
2024/04/18 18:56:14;;;;;;;0.00;0.00;;;;;;;-145.06;81.24;53179.59;11311862;26;20075;-67
2024/04/18 19:01:14;;;;;;;0.00;0.00;;;;;;;-145.06;82.14;53191.75;11303844;26;20003;-70
2024/04/18 19:06:22;;;;;;;0.00;0.00;;;;;;;-145.06;81.85;53187.69;11311467;26;20007;-67
2024/04/18 19:11:23;;;;;;;0.00;0.00;;;;;;;-145.06;82.57;53167.44;11304911;26;20003;-67
2024/04/18 19:16:23;;;;;;;0.10;0.10;;;;;;;-145.06;85.03;53189.72;11297770;26;20018;-69
2024/04/18 19:21:23;;;;;;;0.10;0.10;;;;;;;-145.06;85.46;53179.59;11299192;26;20014;-69
2024/04/18 19:26:24;;;;;;;0.00;0.00;;;;;;;-145.06;85.24;53139.09;11297789;26;20233;-66
2024/04/18 19:31:25;;;;;;;0.00;0.00;;;;;;;-145.06;86.02;53199.84;11306937;26;20481;-67
2024/04/18 19:36:25;;;;;;;0.00;0.00;;;;;;;-145.06;85.96;53187.69;11299446;26;20048;-67
2024/04/18 19:41:25;;;;;;;0.10;0.10;;;;;;;-145.06;86.51;53171.50;11304683;26;20082;-67
2024/04/18 19:46:25;;;;;;;0.00;0.00;;;;;;;-145.06;86.50;53175.53;11300893;26;20025;-67
2024/04/18 19:51:26;;;;;;;0.00;0.00;;;;;;;-145.06;88.08;53149.22;11295814;26;20002;-67
2024/04/18 19:56:27;;;;;;;0.00;0.00;;;;;;;-145.06;88.40;53143.16;11309113;26;20002;-68
2024/04/18 20:01:28;;;;;;;0.00;0.00;;;;;;;-145.06;90.41;53163.41;11298556;26;20391;-66
2024/04/18 20:06:28;;;;;;;0.00;0.00;;;;;;;-145.06;91.05;53139.09;11311055;26;20046;-68
2024/04/18 20:11:29;;;;;;;0.00;0.00;;;;;;;-145.06;92.48;53151.25;11302433;26;20094;-69
2024/04/18 20:16:29;;;;;;;0.00;0.00;;;;;;;-145.06;94.48;53139.09;11299740;26;20003;-68
2024/04/18 20:21:29;;;;;;;0.00;0.00;;;;;;;-145.06;96.49;53126.94;11300831;26;20213;-69
2024/04/18 20:26:29;;;;;;;0.00;0.00;;;;;;;-145.06;98.93;53102.66;11299062;26;19999;-69
2024/04/18 20:31:30;;;;;;;0.00;0.00;;;;;;;-145.06;100.00;53106.69;11304497;26;19998;-67
2024/04/18 20:36:30;;;;;;;0.00;0.00;;;;;;;-145.06;100.00;53050.00;11305160;26;19994;-68
2024/04/18 20:41:30;;;;;;;0.00;0.00;;;;;;;-145.06;100.00;53086.47;11305733;26;20018;-68
2024/04/18 20:46:31;;;;;;;0.08;0.08;;;;;;;-145.06;100.00;53066.22;11297892;26;20013;-68
2024/04/18 20:51:31;;;;;;;0.00;0.00;;;;;;;-145.06;100.00;53072.28;11306069;26;19994;-68
2024/04/18 20:56:32;;;;;;;0.00;0.00;;;;;;;-145.06;100.00;53035.84;11301570;26;20010;-68
2024/04/18 21:01:32;;;;;;;0.00;0.00;;;;;;;-145.06;100.00;53043.94;11291312;26;20272;-68
2024/04/18 21:06:32;;;;;;;0.00;0.00;;;;;;;-145.06;100.00;53005.47;11298494;26;20007;-68
2024/04/18 21:11:33;;;;;;;0.00;0.00;;;;;;;-145.06;100.00;53031.78;11315806;26;20055;-68
2024/04/18 21:16:33;;;;;;;0.00;0.00;;;;;;;-145.06;100.00;53011.53;11307067;26;20447;-68
2024/04/18 21:21:34;;;;;;;0.00;0.00;;;;;;;-145.06;100.00;52973.06;11304898;26;20474;-68
2024/04/18 21:26:34;;;;;;;0.00;0.00;;;;;;;-145.06;100.00;53015.59;11303354;26;20275;-67
2024/04/18 21:31:35;;;;;;;0.03;0.03;;;;;;;-145.06;100.00;53013.56;11308349;26;20003;-68
2024/04/18 21:36:36;;;;;;;0.00;0.00;;;;;;;-145.06;100.00;52975.09;11293491;26;20426;-68
2024/04/18 21:41:37;;;;;;;0.03;0.03;;;;;;;-145.06;100.00;52993.31;11296348;26;20231;-67
2024/04/18 21:46:38;;;;;;;0.10;0.10;;;;;;;-145.06;100.00;52993.31;11305547;26;20079;-68
2024/04/18 21:51:38;;;;;;;0.00;0.00;;;;;;;-145.06;100.00;53029.75;11301182;26;20087;-68
2024/04/18 21:56:38;;;;;;;0.00;0.00;;;;;;;-145.06;100.00;53023.69;11308689;26;20016;-68
2024/04/18 22:01:40;;;;;;;0.00;0.00;;;;;;;-145.06;100.00;53025.72;11316355;26;20067;-68
2024/04/18 22:06:41;;;;;;;0.00;0.00;;;;;;;-145.06;100.00;53007.50;11320641;26;19998;-68
2024/04/18 22:11:42;;;;;;;0.00;0.00;;;;;;;-145.06;100.00;52985.22;11301585;26;20002;-68
2024/04/18 22:16:42;;;;;;;0.03;0.03;;;;;;;-145.06;100.00;53021.66;11311157;26;19999;-68
2024/04/18 22:21:43;;;;;;;0.00;0.00;;;;;;;-145.06;100.00;53052.03;11304762;26;20003;-67
2024/04/18 22:26:43;;;;;;;0.00;0.00;;;;;;;-145.06;100.00;53027.75;11319599;26;20098;-67
2024/04/18 22:31:43;;;;;;;0.00;0.00;;;;;;;-145.06;100.00;53023.69;11323146;26;20453;-68
2024/04/18 22:36:43;;;;;;;0.00;0.00;;;;;;;-145.06;100.00;53009.50;11315569;26;20347;-68
2024/04/18 22:41:44;;;;;;;0.00;0.00;;;;;;;-145.06;100.00;53021.66;11304241;26;20014;-67